Time;durP1;ratioP1;P1;durP2;ratioP2;P2;SDS_P1;SDS_P2;PMS_P1;PMS_P2;Temp;Humidity;BMP_temperature;BMP_pressure;BME280_temperature;BME280_humidity;BME280_pressure;Samples;Min_cycle;Max_cycle;Signal;HPM_P1;HPM_P2
2021/07/09 00:01:14;;;;;;;8.00;6.77;;;19.00;99.90;;;18.95;94.50;98355.34;5112393;27;20639;-67
2021/07/09 00:03:43;;;;;;;6.47;5.77;;;19.00;99.90;;;18.94;94.48;98353.69;5090444;27;20647;-67
2021/07/09 00:06:12;;;;;;;6.97;6.27;;;18.90;99.90;;;18.89;94.75;98350.66;5112068;27;20653;-68
2021/07/09 00:08:41;;;;;;;8.40;6.17;;;18.90;99.90;;;18.87;95.61;98363.22;5108348;27;20649;-68
2021/07/09 00:11:10;;;;;;;7.03;6.10;;;18.90;99.90;;;18.88;95.29;98364.84;5089632;28;20674;-68
2021/07/09 00:13:39;;;;;;;6.53;5.80;;;18.90;99.90;;;18.87;95.73;98368.50;5081765;28;20664;-67
2021/07/09 00:16:07;;;;;;;7.07;6.47;;;18.90;99.90;;;18.88;95.40;98364.03;5094472;27;20694;-67
2021/07/09 00:18:37;;;;;;;7.47;6.37;;;18.90;99.90;;;18.88;95.75;98362.22;5094758;28;20748;-68
2021/07/09 00:21:06;;;;;;;7.27;5.83;;;18.90;99.90;;;18.86;95.37;98361.53;5121184;27;20640;-68
2021/07/09 00:23:35;;;;;;;6.40;5.80;;;18.80;99.90;;;18.82;96.03;98376.03;5112110;27;20656;-67
2021/07/09 00:26:04;;;;;;;6.67;5.90;;;18.80;99.90;;;18.81;95.44;98378.81;5115018;27;20643;-67
2021/07/09 00:28:33;;;;;;;10.80;5.80;;;18.80;99.90;;;18.79;95.19;98362.28;5110322;27;21094;-67
2021/07/09 00:31:02;;;;;;;8.10;6.60;;;18.80;99.90;;;18.80;95.69;98356.84;5110997;27;20663;-67
2021/07/09 00:33:30;;;;;;;6.53;5.70;;;18.80;99.90;;;18.78;95.54;98361.47;5111275;27;21181;-67
2021/07/09 00:36:00;;;;;;;7.77;6.50;;;18.80;99.90;;;18.76;95.84;98355.47;5107094;27;20650;-67
2021/07/09 00:38:29;;;;;;;8.33;6.53;;;18.80;99.90;;;18.77;95.29;98356.31;5110495;27;21055;-67
2021/07/09 00:40:58;;;;;;;7.13;6.07;;;18.80;99.90;;;18.76;96.00;98360.75;5115048;27;20742;-67
2021/07/09 00:43:27;;;;;;;7.00;6.30;;;18.80;99.90;;;18.75;95.16;98359.13;5105969;27;20639;-67
2021/07/09 00:45:56;;;;;;;9.97;6.40;;;18.80;99.90;;;18.73;94.47;98361.06;5110758;27;23030;-67
2021/07/09 00:48:28;;;;;;;7.67;6.90;;;18.80;99.90;;;18.71;94.70;98363.03;5124328;27;20764;-67
2021/07/09 00:51:00;;;;;;;6.73;6.13;;;18.70;99.90;;;18.70;95.66;98364.03;5112021;27;20666;-67
2021/07/09 00:53:28;;;;;;;10.10;5.70;;;18.70;99.90;;;18.70;95.46;98356.09;5125620;27;20697;-67
2021/07/09 00:55:58;;;;;;;8.17;6.37;;;18.70;99.90;;;18.67;95.67;98361.69;5109613;27;21222;-67
2021/07/09 00:58:27;;;;;;;6.93;6.13;;;18.70;99.90;;;18.64;95.27;98361.97;5113504;27;20644;-67
2021/07/09 01:00:57;;;;;;;6.70;6.10;;;18.70;99.90;;;18.63;95.31;98365.56;5105276;27;21200;-67
2021/07/09 01:03:26;;;;;;;6.30;5.70;;;18.70;99.90;;;18.64;96.37;98371.69;5125653;27;20657;-67
2021/07/09 01:05:54;;;;;;;6.93;6.23;;;18.60;99.90;;;18.66;96.34;98365.28;5104902;27;21730;-67
2021/07/09 01:08:25;;;;;;;6.93;6.10;;;18.70;99.90;;;18.67;95.44;98372.25;5103578;27;20654;-67
2021/07/09 01:10:54;;;;;;;7.03;6.10;;;18.70;99.90;;;18.67;95.64;98374.03;5103346;27;20654;-67
2021/07/09 01:13:22;;;;;;;6.67;6.00;;;18.70;99.90;;;18.63;95.99;98362.94;5107642;27;20754;-67
2021/07/09 01:15:52;;;;;;;6.07;5.53;;;18.60;99.90;;;18.62;95.97;98363.09;5107479;27;20667;-67
2021/07/09 01:18:21;;;;;;;7.03;6.33;;;18.60;99.90;;;18.61;95.55;98364.91;5114900;27;20628;-67
2021/07/09 01:20:49;;;;;;;7.77;6.00;;;18.60;99.90;;;18.62;95.87;98358.63;5092431;28;20754;-67
2021/07/09 01:23:20;;;;;;;6.83;6.20;;;18.60;99.90;;;18.59;95.50;98358.91;5106831;27;20744;-68
2021/07/09 01:25:50;;;;;;;7.20;5.93;;;18.60;99.90;;;18.56;95.66;98359.22;5105564;27;20663;-67
2021/07/09 01:28:19;;;;;;;7.47;6.23;;;18.60;99.90;;;18.54;95.48;98361.19;5090072;28;20652;-67
2021/07/09 01:30:48;;;;;;;9.10;6.40;;;18.60;99.90;;;18.48;95.20;98359.13;5107109;27;20652;-67
2021/07/09 01:33:16;;;;;;;9.07;6.20;;;18.50;99.90;;;18.46;95.95;98369.00;5108806;27;20663;-67
2021/07/09 01:35:45;;;;;;;8.70;6.40;;;18.50;99.90;;;18.44;95.56;98363.03;5091021;27;20648;-67
2021/07/09 01:38:15;;;;;;;7.10;6.20;;;18.50;99.90;;;18.45;95.89;98366.50;5111169;27;20738;-67
2021/07/09 01:40:43;;;;;;;7.13;5.93;;;18.50;99.90;;;18.45;96.09;98362.06;5105294;27;20658;-67
2021/07/09 01:43:13;;;;;;;8.20;5.27;;;18.50;99.90;;;18.43;95.80;98363.16;5107735;27;21282;-67
2021/07/09 01:45:42;;;;;;;7.57;5.57;;;18.50;99.90;;;18.39;96.43;98359.16;5110436;27;20718;-67
2021/07/09 01:48:11;;;;;;;6.13;5.53;;;18.40;99.90;;;18.38;96.41;98354.03;5108993;27;20651;-67
2021/07/09 01:50:39;;;;;;;6.63;4.90;;;18.40;99.90;;;18.39;96.33;98348.59;5107062;27;20691;-67
2021/07/09 01:53:08;;;;;;;6.57;4.80;;;18.40;99.90;;;18.34;96.11;98352.66;5107914;27;20759;-67
2021/07/09 01:55:36;;;;;;;5.40;4.73;;;18.40;99.90;;;18.32;96.27;98346.69;5107923;27;20653;-67
2021/07/09 01:58:05;;;;;;;6.60;5.60;;;18.40;99.90;;;18.30;96.00;98357.41;5121285;27;20744;-67
2021/07/09 02:00:35;;;;;;;7.00;4.90;;;18.40;99.90;;;18.27;96.26;98351.59;5103354;27;20650;-67
2021/07/09 02:03:04;;;;;;;6.10;4.73;;;18.30;99.90;;;18.26;96.35;98349.91;5088856;27;20661;-68
2021/07/09 02:05:33;;;;;;;6.33;5.73;;;18.30;99.90;;;18.23;96.24;98351.03;5107342;27;20660;-67
2021/07/09 02:08:01;;;;;;;6.43;5.50;;;18.30;99.90;;;18.22;96.94;98344.09;5085237;28;20653;-67
2021/07/09 02:10:34;;;;;;;5.80;5.13;;;18.30;99.90;;;18.23;97.37;98355.50;5108748;27;20691;-67
2021/07/09 02:13:04;;;;;;;7.37;5.57;;;18.30;99.90;;;18.21;96.68;98354.81;5110141;27;20692;-67
2021/07/09 02:15:37;;;;;;;6.03;5.13;;;18.20;99.90;;;18.18;97.27;98348.00;5107636;27;21033;-67
2021/07/09 02:18:07;;;;;;;6.10;5.53;;;18.20;99.90;;;18.16;96.41;98351.75;5106654;27;20743;-67
2021/07/09 02:20:37;;;;;;;7.40;6.00;;;18.20;99.90;;;18.15;96.91;98348.28;5103994;27;20742;-67
2021/07/09 02:23:08;;;;;;;6.27;5.67;;;18.20;99.90;;;18.14;96.87;98340.50;5106519;27;20666;-67
2021/07/09 02:25:38;;;;;;;11.10;6.33;;;18.20;99.90;;;18.12;97.20;98350.38;5102087;28;20780;-67
2021/07/09 02:28:11;;;;;;;7.87;5.60;;;18.20;99.90;;;18.11;97.05;98341.59;5108302;27;21919;-67
2021/07/09 02:30:41;;;;;;;7.03;5.50;;;18.10;99.90;;;18.07;97.15;98347.31;5107833;27;21075;-67
2021/07/09 02:33:10;;;;;;;9.80;6.00;;;18.10;99.90;;;18.04;97.19;98351.09;5103124;27;20654;-67
2021/07/09 02:35:40;;;;;;;6.80;6.20;;;18.10;99.90;;;18.04;97.26;98352.88;5108838;27;20643;-67
2021/07/09 02:38:10;;;;;;;8.40;7.20;;;18.10;99.90;;;18.04;97.21;98351.09;5111364;27;20639;-67
2021/07/09 02:40:40;;;;;;;7.20;6.53;;;18.10;99.90;;;18.05;97.57;98357.19;5107928;27;20632;-67
2021/07/09 02:43:09;;;;;;;7.30;6.57;;;18.10;99.90;;;18.04;97.84;98355.50;5106475;27;21105;-67
2021/07/09 02:45:38;;;;;;;7.93;7.13;;;18.10;99.90;;;18.02;97.61;98347.72;5106588;27;21184;-67
2021/07/09 02:48:24;;;;;;;8.13;6.70;;;18.00;99.90;;;18.02;97.41;98346.91;5108378;28;20646;-67
2021/07/09 02:50:53;;;;;;;7.97;6.57;;;18.10;99.90;;;17.98;97.77;98351.66;5089583;28;21184;-67
2021/07/09 02:53:21;;;;;;;7.03;6.33;;;18.00;99.90;;;17.97;97.75;98355.25;5091058;28;20726;-67
2021/07/09 02:55:50;;;;;;;8.33;7.27;;;18.00;99.90;;;17.99;97.90;98349.84;5110072;28;20741;-67
2021/07/09 02:58:18;;;;;;;9.30;6.73;;;18.00;99.90;;;18.01;98.32;98347.88;5087003;28;20663;-67
2021/07/09 03:00:47;;;;;;;7.23;6.50;;;18.00;99.90;;;18.01;97.94;98347.88;5104587;28;21011;-67
2021/07/09 03:03:15;;;;;;;6.90;6.00;;;18.10;99.90;;;18.01;97.81;98347.88;5104981;28;20651;-67
2021/07/09 03:05:45;;;;;;;7.70;6.17;;;18.00;99.90;;;18.01;97.68;98347.88;5105639;28;21225;-67
2021/07/09 03:08:14;;;;;;;7.00;6.20;;;18.00;99.90;;;17.99;97.70;98342.75;5103484;28;20654;-67
2021/07/09 03:10:42;;;;;;;6.93;5.67;;;18.00;99.90;;;17.98;97.61;98350.81;5103760;28;20758;-67
2021/07/09 03:13:11;;;;;;;7.10;6.40;;;18.00;99.90;;;17.99;98.05;98347.19;5108809;28;20663;-67
2021/07/09 03:15:40;;;;;;;7.60;6.73;;;18.00;99.90;;;17.95;97.62;98351.94;5108297;28;20642;-68
2021/07/09 03:18:09;;;;;;;7.20;6.50;;;18.00;99.90;;;17.97;97.90;98354.44;5105654;28;21273;-67
2021/07/09 03:20:38;;;;;;;8.90;6.57;;;18.00;99.90;;;17.92;97.61;98354.88;5110954;28;20639;-67
2021/07/09 03:23:12;;;;;;;7.93;7.13;;;18.00;99.90;;;17.90;97.67;98361.25;5080644;28;20679;-67
2021/07/09 03:25:41;;;;;;;9.03;7.10;;;17.90;99.90;;;17.92;98.29;98358.47;5106890;28;20738;-67
2021/07/09 03:28:09;;;;;;;9.03;6.70;;;18.00;99.90;;;17.95;97.96;98356.38;5108785;28;20647;-67
2021/07/09 03:30:38;;;;;;;9.27;7.63;;;18.00;99.90;;;17.95;98.25;98351.09;5106449;28;20738;-67
2021/07/09 03:33:06;;;;;;;7.93;7.17;;;18.00;99.90;;;17.97;98.03;98351.81;5092428;28;20658;-67
2021/07/09 03:35:35;;;;;;;7.77;6.97;;;18.00;99.90;;;17.99;98.04;98352.47;5104842;28;21233;-67
2021/07/09 03:38:05;;;;;;;12.13;7.97;;;18.00;99.90;;;18.00;98.05;98359.44;5107545;28;20647;-68
2021/07/09 03:40:34;;;;;;;8.00;7.20;;;18.00;99.90;;;18.00;97.67;98364.72;5106142;28;20629;-67
2021/07/09 03:43:03;;;;;;;8.17;6.90;;;18.10;99.90;;;18.01;97.83;98371.63;5108504;28;20645;-67
2021/07/09 03:45:32;;;;;;;8.20;7.10;;;18.00;99.90;;;17.99;97.91;98368.31;5106557;28;20742;-67
2021/07/09 03:48:01;;;;;;;6.53;5.93;;;18.00;99.90;;;17.99;97.95;98373.59;5085311;28;20686;-67
2021/07/09 03:50:29;;;;;;;8.83;6.67;;;18.00;99.90;;;18.00;97.88;98370.00;5110154;28;20746;-67
2021/07/09 03:52:58;;;;;;;7.00;6.33;;;18.00;99.90;;;18.01;97.82;98371.63;5109460;28;21264;-68
2021/07/09 03:55:27;;;;;;;7.03;6.23;;;18.00;99.90;;;18.01;97.76;98374.28;5107937;28;20648;-67
2021/07/09 03:57:56;;;;;;;8.00;7.00;;;18.00;99.90;;;17.98;97.79;98375.41;5107928;28;20685;-67
2021/07/09 04:00:25;;;;;;;8.70;6.80;;;18.00;99.90;;;18.00;98.00;98364.72;5106609;28;20670;-67
2021/07/09 04:02:54;;;;;;;8.43;7.00;;;18.00;99.90;;;17.99;97.81;98379.69;5112915;27;20805;-68
2021/07/09 04:05:22;;;;;;;8.77;7.87;;;18.00;99.90;;;18.01;97.48;98377.78;5113307;27;20642;-68
2021/07/09 04:07:51;;;;;;;8.40;6.90;;;18.00;99.90;;;18.00;98.04;98373.44;5111397;27;20731;-67
2021/07/09 04:10:20;;;;;;;8.23;7.53;;;18.00;99.90;;;17.99;98.32;98382.34;5114329;27;20644;-67
2021/07/09 04:12:48;;;;;;;8.40;7.57;;;18.00;99.90;;;18.00;98.03;98391.94;5110563;27;20764;-67
2021/07/09 04:15:19;;;;;;;9.07;7.87;;;18.00;99.90;;;17.97;97.90;98386.94;5087762;28;20655;-68
2021/07/09 04:17:48;;;;;;;9.20;7.60;;;18.00;99.90;;;17.95;97.76;98390.69;5094291;28;21255;-68
2021/07/09 04:20:17;;;;;;;8.17;7.30;;;18.00;99.90;;;17.95;98.28;98388.03;5109080;27;20731;-67
2021/07/09 04:22:46;;;;;;;8.60;7.80;;;17.90;99.90;;;17.96;98.13;98392.38;5110143;27;20741;-67
2021/07/09 04:25:14;;;;;;;8.00;7.10;;;18.00;99.90;;;17.94;97.95;98389.03;5104491;27;20663;-68
2021/07/09 04:27:43;;;;;;;7.97;7.17;;;18.00;99.90;;;17.94;97.81;98392.50;5113769;27;21182;-67
2021/07/09 04:30:15;;;;;;;8.07;6.93;;;18.00;99.90;;;17.94;97.08;98397.78;5109272;27;21196;-67
2021/07/09 04:32:45;;;;;;;8.20;6.77;;;18.00;99.90;;;17.93;97.62;98395.28;5127358;27;20653;-67
2021/07/09 04:35:14;;;;;;;8.00;7.20;;;17.90;99.90;;;17.92;98.17;98398.91;5110231;27;21247;-68
2021/07/09 04:37:43;;;;;;;7.10;6.40;;;17.90;99.90;;;17.92;97.36;98397.09;5088499;28;20643;-68
2021/07/09 04:40:13;;;;;;;6.77;5.90;;;18.00;99.90;;;17.93;98.11;98405.84;5107193;27;20650;-67
2021/07/09 04:42:42;;;;;;;5.53;5.03;;;17.90;99.90;;;17.94;98.12;98404.88;5089392;28;20654;-67
2021/07/09 04:45:16;;;;;;;6.30;5.20;;;17.90;99.90;;;17.95;97.99;98407.38;5109826;27;20638;-67
2021/07/09 04:47:46;;;;;;;6.07;5.47;;;18.00;99.90;;;17.93;97.96;98400.56;5111956;27;21211;-67
2021/07/09 04:50:15;;;;;;;5.80;5.20;;;17.90;99.90;;;17.92;98.02;98398.91;5106412;27;21351;-67
2021/07/09 04:52:48;;;;;;;6.37;5.37;;;17.90;99.90;;;17.91;98.11;98404.34;5112207;27;21214;-67
2021/07/09 04:55:16;;;;;;;6.10;5.50;;;17.90;99.90;;;17.91;98.53;98407.81;5112028;27;20645;-67
2021/07/09 04:57:45;;;;;;;6.33;5.10;;;18.00;99.90;;;17.92;98.06;98419.19;5094485;28;20634;-67
2021/07/09 05:00:15;;;;;;;6.40;5.73;;;17.90;99.90;;;17.91;98.18;98420.19;5087747;27;21313;-67
2021/07/09 05:02:43;;;;;;;6.13;5.43;;;17.90;99.90;;;17.91;98.32;98418.38;5109101;27;20788;-67
2021/07/09 05:05:16;;;;;;;5.10;4.60;;;17.90;99.90;;;17.90;98.18;98421.13;5093995;28;21186;-67
2021/07/09 05:07:47;;;;;;;6.13;5.53;;;17.90;99.90;;;17.89;98.23;98428.25;5089418;27;21038;-67
2021/07/09 05:10:16;;;;;;;5.00;4.50;;;17.90;99.90;;;17.91;98.10;98430.72;5122553;27;20643;-67
2021/07/09 05:12:44;;;;;;;6.00;4.50;;;18.00;99.90;;;17.90;98.23;98432.53;5107316;27;20767;-67
2021/07/09 05:15:13;;;;;;;6.23;4.67;;;17.90;99.90;;;17.90;98.78;98431.69;5105753;27;20667;-67
2021/07/09 05:17:42;;;;;;;5.57;5.00;;;17.90;99.90;;;17.89;98.44;98435.31;5109824;27;20694;-67
2021/07/09 05:20:14;;;;;;;4.93;4.43;;;17.90;99.90;;;17.85;98.23;98437.41;5104670;28;20643;-67
2021/07/09 05:22:43;;;;;;;7.03;4.87;;;17.90;99.90;;;17.85;98.24;98432.13;5110698;28;20679;-67
2021/07/09 05:25:13;;;;;;;5.93;5.33;;;17.90;99.90;;;17.87;98.33;98442.53;5117537;27;20638;-66
2021/07/09 05:27:41;;;;;;;5.67;5.13;;;17.90;99.90;;;17.88;98.18;98449.50;5114141;27;20638;-66
2021/07/09 05:30:12;;;;;;;7.67;5.30;;;17.90;99.90;;;17.89;98.32;98443.22;5108430;27;20737;-66
2021/07/09 05:32:44;;;;;;;5.53;5.03;;;17.90;99.90;;;17.90;98.21;98445.72;5116235;27;20688;-67
2021/07/09 05:35:15;;;;;;;6.40;5.80;;;17.90;99.90;;;17.92;98.55;98450.84;5118298;27;21062;-67
2021/07/09 05:37:43;;;;;;;5.50;5.00;;;17.90;99.90;;;17.92;98.21;98449.06;5108953;28;20642;-66
2021/07/09 05:40:14;;;;;;;6.03;5.43;;;17.90;99.90;;;17.90;98.04;98448.34;5105235;28;20630;-67
2021/07/09 05:42:43;;;;;;;9.30;5.97;;;17.90;99.90;;;17.90;98.52;98458.09;5111452;28;20636;-66
2021/07/09 05:45:13;;;;;;;6.17;5.13;;;17.90;99.90;;;17.88;98.09;98455.59;5108133;28;21214;-66
2021/07/09 05:47:41;;;;;;;6.03;5.23;;;17.90;99.90;;;17.85;98.79;98461.16;5110159;28;20662;-66
2021/07/09 05:50:11;;;;;;;5.37;4.80;;;17.90;99.90;;;17.87;98.33;98461.84;5094295;28;20635;-66
2021/07/09 05:52:41;;;;;;;5.83;4.97;;;17.90;99.90;;;17.89;97.61;98461.69;5106347;28;20634;-66
2021/07/09 05:55:10;;;;;;;5.27;4.77;;;17.90;99.90;;;17.87;97.90;98464.47;5110969;27;20784;-66
2021/07/09 05:57:39;;;;;;;4.97;4.53;;;17.90;99.90;;;17.87;97.54;98469.75;5108839;27;20648;-67
2021/07/09 06:00:10;;;;;;;5.30;4.80;;;17.90;99.90;;;17.85;97.78;98470.88;5110125;27;20634;-66
2021/07/09 06:02:39;;;;;;;5.63;5.13;;;17.90;99.90;;;17.81;97.76;98469.50;5092013;28;21007;-66
2021/07/09 06:05:10;;;;;;;5.70;5.20;;;17.90;99.90;;;17.81;97.74;98469.50;5111635;28;21185;-66
2021/07/09 06:07:41;;;;;;;6.00;5.40;;;17.90;99.90;;;17.78;97.98;98470.59;5072095;28;20653;-66
2021/07/09 06:10:11;;;;;;;8.13;5.80;;;17.90;99.90;;;17.77;97.90;98476.00;5107785;28;20739;-66
2021/07/09 06:12:39;;;;;;;6.37;5.77;;;17.80;99.90;;;17.76;97.82;98480.47;5106355;27;21187;-66
2021/07/09 06:15:10;;;;;;;9.70;5.67;;;17.80;99.90;;;17.78;98.36;98486.44;5113538;27;20657;-66
2021/07/09 06:17:38;;;;;;;6.70;6.00;;;17.80;99.90;;;17.79;98.24;98482.00;5108315;28;20690;-67
2021/07/09 06:20:08;;;;;;;8.20;6.00;;;17.80;99.90;;;17.77;98.38;98484.78;5108931;28;20672;-67
2021/07/09 06:22:37;;;;;;;6.40;5.60;;;17.80;99.90;;;17.78;98.59;98486.44;5110419;28;21011;-66
2021/07/09 06:25:10;;;;;;;7.73;5.90;;;17.90;99.90;;;17.81;98.26;98485.31;5107099;28;21267;-67
2021/07/09 06:27:38;;;;;;;11.03;6.47;;;17.80;99.90;;;17.79;98.62;98489.91;5106074;27;20650;-66
2021/07/09 06:30:09;;;;;;;9.43;8.37;;;17.90;99.90;;;17.76;98.19;98493.66;5084867;28;20985;-67
2021/07/09 06:32:38;;;;;;;8.80;7.90;;;17.80;99.90;;;17.76;98.35;98498.94;5102152;28;20663;-67
2021/07/09 06:35:10;;;;;;;6.50;5.83;;;17.80;99.90;;;17.78;98.40;98491.72;5110311;27;20764;-67
2021/07/09 06:37:39;;;;;;;6.93;6.23;;;17.80;99.90;;;17.76;98.41;98485.75;5091620;28;20647;-67
2021/07/09 06:40:11;;;;;;;7.53;5.10;;;17.80;99.90;;;17.78;98.32;98493.53;5108516;27;20727;-67
2021/07/09 06:42:40;;;;;;;6.00;5.50;;;17.80;99.90;;;17.79;97.46;98501.31;5105622;28;20647;-67
2021/07/09 06:45:09;;;;;;;6.27;5.10;;;17.80;99.90;;;17.81;98.26;98507.25;5109601;27;20669;-67
2021/07/09 06:47:39;;;;;;;5.37;4.97;;;17.80;99.90;;;17.81;98.46;98501.97;5089631;28;20669;-67
2021/07/09 06:50:08;;;;;;;7.03;6.33;;;17.80;99.90;;;17.79;98.40;98509.22;5107393;28;20684;-67
2021/07/09 06:52:36;;;;;;;7.30;6.00;;;17.80;99.90;;;17.79;98.45;98511.03;5089865;28;20684;-67
2021/07/09 06:55:06;;;;;;;6.07;4.90;;;17.80;99.90;;;17.77;99.13;98518.22;5108805;28;21044;-67
2021/07/09 06:57:36;;;;;;;6.17;5.43;;;17.80;99.90;;;17.75;98.39;98523.66;5106092;28;20748;-68
2021/07/09 07:00:07;;;;;;;10.30;7.37;;;17.80;99.90;;;17.74;98.63;98516.72;5112032;28;20673;-67
2021/07/09 07:02:36;;;;;;;7.13;6.40;;;17.80;99.90;;;17.74;98.55;98522.00;5093895;28;21477;-68
2021/07/09 07:05:06;;;;;;;8.10;6.80;;;17.80;99.90;;;17.76;98.84;98533.25;5107786;28;20703;-68
2021/07/09 07:07:35;;;;;;;6.90;6.03;;;17.80;99.90;;;17.77;98.94;98532.28;5094901;28;21219;-68
2021/07/09 07:10:04;;;;;;;7.97;6.90;;;17.80;99.90;;;17.79;99.05;98530.31;5105852;28;20664;-67
2021/07/09 07:12:33;;;;;;;7.00;6.40;;;17.90;99.90;;;17.78;97.82;98538.38;5110034;28;20733;-67
2021/07/09 07:15:04;;;;;;;6.57;5.97;;;17.90;99.90;;;17.79;99.01;98542.69;5111798;28;20645;-67
2021/07/09 07:17:33;;;;;;;7.03;6.33;;;17.90;99.90;;;17.79;99.17;98538.25;5107822;28;20681;-67
2021/07/09 07:20:03;;;;;;;6.43;5.83;;;17.90;99.90;;;17.83;98.88;98536.16;5104422;28;21215;-67
2021/07/09 07:22:32;;;;;;;9.07;5.90;;;17.90;99.90;;;17.85;98.88;98534.22;5107498;28;20638;-68
2021/07/09 07:25:01;;;;;;;7.00;6.30;;;17.90;99.90;;;17.84;98.74;98541.28;5091307;28;20756;-68
2021/07/09 07:27:29;;;;;;;8.07;7.20;;;17.90;99.90;;;17.87;98.23;98543.66;5105943;28;20681;-68
2021/07/09 07:29:59;;;;;;;7.40;6.53;;;17.90;99.90;;;17.90;98.69;98551.31;5103698;28;21342;-68
2021/07/09 07:32:29;;;;;;;8.33;7.53;;;18.00;99.90;;;17.92;98.87;98553.81;5102770;28;21009;-68
2021/07/09 07:34:57;;;;;;;10.73;6.70;;;18.00;99.90;;;17.92;98.46;98558.13;5089737;28;20687;-67
2021/07/09 07:37:26;;;;;;;7.37;6.67;;;18.00;99.90;;;17.92;99.08;98560.75;5092820;28;20642;-68
2021/07/09 07:39:55;;;;;;;8.93;7.17;;;18.00;99.90;;;17.93;98.81;98559.75;5107714;27;20712;-68
2021/07/09 07:42:24;;;;;;;8.83;7.33;;;17.90;99.90;;;17.93;98.61;98558.94;5103939;28;20649;-68
2021/07/09 07:44:52;;;;;;;9.40;8.50;;;18.00;99.90;;;17.92;98.61;98567.84;5116531;27;20668;-67
2021/07/09 07:47:22;;;;;;;9.60;8.40;;;18.00;99.90;;;17.91;98.30;98560.06;5095673;28;20667;-67
2021/07/09 07:49:52;;;;;;;8.77;7.97;;;18.00;99.90;;;17.91;98.58;98562.72;5124896;27;20819;-68
2021/07/09 07:52:20;;;;;;;8.67;7.87;;;17.90;99.90;;;17.91;98.37;98568.81;5129428;27;20732;-68
2021/07/09 07:54:49;;;;;;;9.03;8.13;;;17.90;99.90;;;17.90;98.58;98575.06;5108304;27;20748;-68
2021/07/09 07:57:17;;;;;;;9.30;8.00;;;17.90;99.90;;;17.91;98.57;98568.00;5104878;28;21199;-68
2021/07/09 07:59:46;;;;;;;9.90;8.90;;;17.90;99.90;;;17.90;98.79;98566.31;5116621;27;20651;-68
2021/07/09 08:02:15;;;;;;;11.83;8.63;;;18.00;99.90;;;17.90;98.19;98569.78;5107341;27;21294;-68
2021/07/09 08:04:45;;;;;;;9.50;8.60;;;18.00;99.90;;;17.88;98.15;98573.56;5119390;27;21066;-68
2021/07/09 08:07:15;;;;;;;9.80;8.40;;;17.90;99.90;;;17.89;98.13;98576.06;5114791;27;20653;-68
2021/07/09 08:09:44;;;;;;;9.23;8.33;;;18.00;99.90;;;17.93;98.29;98575.59;5111943;27;20645;-68
2021/07/09 08:12:13;;;;;;;8.87;7.40;;;18.00;99.90;;;17.94;98.62;98576.47;5105573;28;20647;-68
2021/07/09 08:14:42;;;;;;;9.50;8.30;;;18.00;99.90;;;17.97;98.72;98576.19;5086547;28;20646;-67
2021/07/09 08:17:10;;;;;;;8.97;7.93;;;18.00;99.90;;;17.97;98.43;98573.53;5110616;27;21165;-67
2021/07/09 08:19:39;;;;;;;12.10;8.80;;;18.00;99.90;;;17.97;98.41;98581.47;5106978;27;20737;-67
2021/07/09 08:22:08;;;;;;;10.37;7.60;;;18.00;99.90;;;17.96;98.68;98575.31;5109796;27;20678;-67
2021/07/09 08:24:38;;;;;;;10.83;7.87;;;18.00;99.90;;;17.99;98.80;98572.41;5114155;27;20645;-67
2021/07/09 08:27:10;;;;;;;9.83;8.80;;;18.00;99.90;;;18.03;98.54;98567.72;5115512;27;20632;-68
2021/07/09 08:29:38;;;;;;;11.07;8.10;;;18.10;99.90;;;18.08;98.24;98574.22;5106894;27;20744;-67
2021/07/09 08:32:08;;;;;;;12.00;8.67;;;18.10;99.90;;;18.16;98.71;98576.19;5087863;28;20756;-67
2021/07/09 08:34:37;;;;;;;10.53;8.53;;;18.20;99.90;;;18.25;98.95;98578.00;5114876;27;20671;-67
2021/07/09 08:37:07;;;;;;;9.47;8.50;;;18.20;99.90;;;18.31;98.70;98580.94;5090848;28;21112;-67
2021/07/09 08:39:35;;;;;;;11.27;8.60;;;18.30;99.90;;;18.34;98.91;98583.28;5107623;27;20657;-67
2021/07/09 08:42:05;;;;;;;9.83;8.83;;;18.30;99.90;;;18.33;98.97;98583.41;5111131;27;20644;-67
2021/07/09 08:44:34;;;;;;;10.83;8.93;;;18.30;99.90;;;18.32;98.13;98589.69;5110947;27;20653;-67
2021/07/09 08:47:04;;;;;;;11.07;9.40;;;18.30;99.90;;;18.29;98.17;98588.16;5112519;27;20675;-66
2021/07/09 08:49:33;;;;;;;22.03;13.50;;;18.30;99.90;;;18.32;98.42;98581.78;5104848;27;20644;-67
2021/07/09 08:52:04;;;;;;;10.60;9.50;;;18.30;99.90;;;18.32;98.97;98589.69;5109842;27;20681;-66
2021/07/09 08:54:33;;;;;;;9.70;8.80;;;18.40;99.90;;;18.37;98.26;98590.91;5107052;27;20671;-66
2021/07/09 08:57:02;;;;;;;11.00;9.70;;;18.40;99.90;;;18.43;98.40;98590.38;5105980;28;20669;-66
2021/07/09 08:59:32;;;;;;;10.70;9.60;;;18.40;99.90;;;18.50;98.79;98587.00;5108316;28;20656;-67
2021/07/09 09:02:03;;;;;;;10.57;9.40;;;18.50;99.90;;;18.63;98.72;98597.31;5112026;27;20673;-67
2021/07/09 09:04:34;;;;;;;11.00;9.90;;;18.60;99.90;;;18.72;98.92;98597.28;5109632;27;20647;-67
2021/07/09 09:07:06;;;;;;;10.73;9.47;;;18.70;99.90;;;18.80;98.36;98600.03;5113116;27;20657;-67
2021/07/09 09:09:37;;;;;;;10.80;9.80;;;18.80;99.90;;;18.88;98.01;98610.72;5112181;27;20743;-67
2021/07/09 09:12:10;;;;;;;11.17;10.10;;;18.80;99.90;;;18.96;98.78;98606.41;5109260;27;20686;-67
2021/07/09 09:14:45;;;;;;;11.40;10.30;;;18.90;99.90;;;19.08;98.61;98609.75;5106450;27;20719;-67
2021/07/09 09:17:30;;;;;;;11.47;10.37;;;19.00;99.90;;;19.17;99.10;98606.22;5103858;27;20660;-67
2021/07/09 09:20:13;;;;;;;12.00;10.70;;;19.10;99.90;;;19.28;99.17;98619.28;5107861;27;20633;-67
2021/07/09 09:23:01;;;;;;;10.67;9.47;;;19.20;99.90;;;19.37;97.84;98617.41;5108037;27;20644;-67
2021/07/09 09:25:33;;;;;;;10.20;9.00;;;19.30;99.90;;;19.42;97.24;98616.97;5105304;28;20616;-67
2021/07/09 09:28:08;;;;;;;11.00;9.90;;;19.30;99.90;;;19.42;97.61;98614.31;5097363;28;20676;-67
2021/07/09 09:30:42;;;;;;;11.10;10.00;;;19.30;99.90;;;19.43;96.34;98616.81;5108566;28;20733;-67
2021/07/09 09:33:13;;;;;;;11.67;10.43;;;19.40;99.90;;;19.42;96.87;98617.81;5087832;28;20704;-67
2021/07/09 09:35:44;;;;;;;13.80;11.20;;;19.40;99.90;;;19.47;97.09;98620.84;5123640;27;20659;-67
2021/07/09 09:38:16;;;;;;;13.90;11.07;;;19.50;99.90;;;19.55;96.76;98615.66;5102885;28;21068;-67
2021/07/09 09:40:46;;;;;;;12.33;10.97;;;19.50;99.90;;;19.59;95.19;98616.19;5089856;28;20636;-67
2021/07/09 09:43:19;;;;;;;12.60;10.47;;;19.50;99.90;;;19.67;95.98;98622.41;5110379;28;20690;-67
2021/07/09 09:46:04;;;;;;;11.83;10.33;;;19.60;99.90;;;19.78;94.36;98619.56;5106960;28;21217;-67
2021/07/09 09:48:45;;;;;;;10.73;9.70;;;19.70;99.90;;;19.87;95.36;98616.91;5107227;28;20641;-67
2021/07/09 09:51:28;;;;;;;11.70;10.60;;;19.80;99.90;;;19.89;95.31;98614.94;5091240;28;21191;-67
2021/07/09 09:54:01;;;;;;;11.10;10.00;;;19.80;99.90;;;19.90;94.82;98618.41;5114845;27;21645;-67
2021/07/09 09:56:42;;;;;;;11.03;9.80;;;19.90;99.90;;;20.00;95.27;98608.59;5091708;27;20694;-67
2021/07/09 09:59:18;;;;;;;11.07;9.97;;;19.90;99.90;;;20.17;94.08;98610.41;5110893;27;20696;-67
2021/07/09 10:01:52;;;;;;;10.40;9.40;;;20.10;99.90;;;20.30;92.35;98614.34;5103952;28;20642;-67
2021/07/09 10:04:22;;;;;;;10.40;9.50;;;20.20;99.90;;;20.34;91.71;98615.69;5108366;27;21182;-67
2021/07/09 10:06:50;;;;;;;11.70;10.50;;;20.20;99.90;;;20.34;90.74;98613.03;5089790;27;20705;-67
2021/07/09 10:09:21;;;;;;;10.53;9.53;;;20.30;99.90;;;20.46;92.12;98601.22;5104477;27;20718;-67
2021/07/09 10:11:50;;;;;;;10.17;9.20;;;20.30;99.90;;;20.64;91.98;98602.88;5110723;27;20628;-67
2021/07/09 10:14:21;;;;;;;10.73;9.63;;;20.50;99.90;;;20.82;91.11;98604.53;5122322;27;20638;-67
2021/07/09 10:16:52;;;;;;;11.37;10.30;;;20.70;99.90;;;21.05;92.05;98612.78;5115015;27;20686;-67
2021/07/09 10:19:26;;;;;;;12.83;10.10;;;20.80;99.90;;;21.24;91.64;98612.59;5111266;27;20644;-67
2021/07/09 11:35:09;;;;;;;9.00;8.10;;;22.40;98.80;;;23.06;80.91;98602.34;5107283;28;20666;-66
2021/07/09 11:37:38;;;;;;;7.80;7.10;;;22.80;99.90;;;23.20;79.64;98597.19;5086926;28;20749;-66
2021/07/09 11:40:11;;;;;;;7.80;7.20;;;22.90;99.50;;;23.29;78.30;98598.81;5088880;28;20746;-66
2021/07/09 11:42:41;;;;;;;8.17;7.47;;;23.00;99.10;;;23.26;77.74;98593.84;5108875;28;20658;-66